Time;durP1;ratioP1;P1;durP2;ratioP2;P2;SDS_P1;SDS_P2;PMS_P1;PMS_P2;Temp;Humidity;BMP_temperature;BMP_pressure;BME280_temperature;BME280_humidity;BME280_pressure;Samples;Min_cycle;Max_cycle;Signal;HPM_P1;HPM_P2
2022/02/11 00:02:20;;;;;;;20.10;18.60;;;;;;;;;;5137537;27;20718;-72
2022/02/11 00:05:11;;;;;;;19.37;17.73;;;;;;;;;;5139393;27;20566;-72
2022/02/11 00:07:39;;;;;;;32.57;29.63;;;;;;;;;;5137936;27;20481;-72
2022/02/11 00:10:07;;;;;;;18.07;16.63;;;;;;;;;;5138139;27;20493;-72
2022/02/11 00:12:35;;;;;;;19.43;17.73;;;;;;;;;;5139205;27;20489;-72
2022/02/11 00:15:26;;;;;;;18.50;17.00;;;;;;;;;;5138754;27;20691;-72
2022/02/11 00:17:54;;;;;;;28.97;26.20;;;;;;;;;;5138546;27;20446;-72
2022/02/11 00:20:23;;;;;;;20.57;18.63;;;;;;;;;;5137724;27;20445;-72
2022/02/11 00:22:51;;;;;;;24.20;21.67;;;;;;;;;;5138855;27;20445;-72
2022/02/11 00:25:19;;;;;;;17.57;16.10;;;;;;;;;;5138502;27;20465;-72
2022/02/11 00:33:32;;;;;;;19.10;17.10;;;;;;;;;;5131059;27;20422;-72
2022/02/11 00:36:02;;;;;;;14.43;13.30;;;;;;;;;;5138761;27;20876;-72
2022/02/11 00:38:44;;;;;;;18.77;16.90;;;;;;;;;;5138287;27;20446;-72
2022/02/11 01:03:25;;;;;;;11.97;10.83;;;;;;;;;;5137760;27;20421;-71
2022/02/11 01:05:54;;;;;;;14.50;13.40;;;;;;;;;;5137832;27;20864;-72
2022/02/11 01:08:22;;;;;;;15.17;14.10;;;;;;;;;;5136875;27;20460;-73
2022/02/11 01:10:50;;;;;;;25.40;23.67;;;;;;;;;;5136075;27;20448;-72
2022/02/11 01:13:17;;;;;;;11.73;10.70;;;;;;;;;;5136674;27;20446;-72
2022/02/11 01:15:52;;;;;;;25.50;23.53;;;;;;;;;;5137934;27;20536;-71
2022/02/11 01:18:20;;;;;;;12.70;11.73;;;;;;;;;;5126379;27;20874;-72
2022/02/11 01:20:52;;;;;;;15.17;12.00;;;;;;;;;;5116654;28;20515;-72
2022/02/11 01:23:39;;;;;;;34.40;31.10;;;;;;;;;;5116520;28;20445;-72
2022/02/11 01:26:13;;;;;;;18.53;16.90;;;;;;;;;;5115375;28;20458;-72
2022/02/11 01:29:01;;;;;;;13.20;12.07;;;;;;;;;;5114826;28;20460;-72
2022/02/11 01:31:49;;;;;;;16.87;15.57;;;;;;;;;;5114622;28;20451;-72
2022/02/11 01:34:37;;;;;;;19.47;18.00;;;;;;;;;;5115304;28;20439;-72
2022/02/11 01:37:22;;;;;;;15.07;13.90;;;;;;;;;;5114954;28;20489;-72
2022/02/11 01:45:48;;;;;;;12.70;11.60;;;;;;;;;;5103886;28;20437;-72
2022/02/11 01:51:24;;;;;;;15.50;14.07;;;;;;;;;;5099936;28;20435;-72
2022/02/11 01:54:01;;;;;;;12.80;10.17;;;;;;;;;;5115602;28;20461;-72
2022/02/11 01:56:44;;;;;;;12.07;10.97;;;;;;;;;;5116573;28;20458;-72
2022/02/11 02:02:30;;;;;;;16.03;14.03;;;;;;;;;;5115282;28;20447;-72
2022/02/11 02:05:25;;;;;;;19.17;17.40;;;;;;;;;;5115658;28;20545;-71
2022/02/11 02:13:57;;;;;;;23.70;21.73;;;;;;;;;;5115465;28;20539;-71
2022/02/11 02:22:24;;;;;;;28.93;26.60;;;;;;;;;;5114924;28;20475;-72
2022/02/11 02:25:00;;;;;;;24.40;22.40;;;;;;;;;;5114826;28;20481;-72
2022/02/11 02:27:43;;;;;;;17.03;15.63;;;;;;;;;;5115402;28;20910;-72
2022/02/11 02:38:50;;;;;;;18.33;17.03;;;;;;;;;;5089207;28;20462;-72
2022/02/11 02:57:59;;;;;;;16.63;15.00;;;;;;;;;;5119457;28;20425;-72
2022/02/11 03:00:55;;;;;;;22.13;20.30;;;;;;;;;;5119265;28;20507;-72
2022/02/11 03:14:47;;;;;;;20.70;18.87;;;;;;;;;;5119022;28;20580;-71
2022/02/11 04:21:34;;;;;;;25.93;23.67;;;;;;;;;;5127969;27;20476;-72
2022/02/11 05:00:14;;;;;;;25.50;23.60;;;;;;;;;;5126489;27;20418;-72
2022/02/11 05:02:42;;;;;;;26.23;24.03;;;;;;;;;;5125104;27;20778;-72
2022/02/11 05:05:13;;;;;;;21.60;19.53;;;;;;;;;;5127089;27;20862;-72
2022/02/11 05:07:43;;;;;;;21.67;20.13;;;;;;;;;;5127666;27;20748;-72
2022/02/11 05:10:14;;;;;;;26.23;23.80;;;;;;;;;;5125442;27;20471;-72
2022/02/11 05:12:42;;;;;;;24.23;22.40;;;;;;;;;;5124261;27;20894;-72
2022/02/11 05:15:10;;;;;;;25.53;23.53;;;;;;;;;;5125528;27;20446;-72
2022/02/11 05:17:38;;;;;;;24.80;22.83;;;;;;;;;;5125645;27;20443;-72
2022/02/11 05:20:08;;;;;;;24.83;22.43;;;;;;;;;;5124951;27;20431;-72
2022/02/11 05:22:42;;;;;;;20.43;18.90;;;;;;;;;;5125595;27;20884;-73
2022/02/11 05:25:10;;;;;;;22.00;19.80;;;;;;;;;;5124166;27;20447;-72
2022/02/11 05:27:40;;;;;;;24.90;20.30;;;;;;;;;;5127474;27;20516;-72
2022/02/11 05:30:14;;;;;;;28.20;25.60;;;;;;;;;;5126949;27;20473;-72
2022/02/11 05:32:43;;;;;;;20.73;18.93;;;;;;;;;;5127544;27;20770;-72
2022/02/11 05:35:11;;;;;;;31.60;28.10;;;;;;;;;;5126267;27;20769;-72
2022/02/11 05:37:41;;;;;;;23.10;21.13;;;;;;;;;;5124533;27;20442;-72
2022/02/11 05:40:09;;;;;;;20.60;18.73;;;;;;;;;;5130659;27;20924;-72
2022/02/11 05:42:37;;;;;;;24.43;22.30;;;;;;;;;;5125994;27;20885;-72
2022/02/11 05:45:25;;;;;;;27.20;24.97;;;;;;;;;;5124932;27;20832;-73
2022/02/11 05:47:53;;;;;;;20.70;19.10;;;;;;;;;;5116233;28;20463;-72
2022/02/11 05:50:21;;;;;;;20.73;18.83;;;;;;;;;;5119089;27;20485;-73
2022/02/11 05:52:50;;;;;;;26.70;23.87;;;;;;;;;;5125141;27;20439;-72
2022/02/11 05:55:18;;;;;;;24.40;22.23;;;;;;;;;;5127550;27;20442;-73
2022/02/11 05:57:47;;;;;;;24.20;22.10;;;;;;;;;;5122726;27;20529;-72
2022/02/11 06:00:17;;;;;;;26.47;24.13;;;;;;;;;;5123693;27;20529;-72
2022/02/11 06:02:45;;;;;;;15.73;14.20;;;;;;;;;;5124719;27;20505;-72
2022/02/11 06:05:16;;;;;;;15.47;13.87;;;;;;;;;;5123283;27;20529;-72
2022/02/11 06:07:44;;;;;;;16.90;15.50;;;;;;;;;;5125415;27;20434;-72
2022/02/11 06:10:13;;;;;;;16.63;15.10;;;;;;;;;;5122976;27;20512;-72
2022/02/11 06:12:41;;;;;;;16.80;14.73;;;;;;;;;;5123775;27;20440;-71
2022/02/11 06:15:09;;;;;;;19.80;18.20;;;;;;;;;;5124038;27;20519;-72
2022/02/11 06:17:39;;;;;;;20.30;18.80;;;;;;;;;;5123590;27;20506;-72
2022/02/11 06:20:08;;;;;;;25.37;22.97;;;;;;;;;;5123266;27;20442;-72
2022/02/11 06:22:36;;;;;;;23.70;21.77;;;;;;;;;;5123742;27;20968;-72
2022/02/11 06:25:04;;;;;;;21.57;20.00;;;;;;;;;;5122899;27;21111;-72
2022/02/11 06:27:34;;;;;;;28.00;25.00;;;;;;;;;;5126918;27;20457;-72
2022/02/11 06:30:03;;;;;;;21.80;19.93;;;;;;;;;;5122435;27;20482;-72
2022/02/11 06:32:32;;;;;;;19.77;18.00;;;;;;;;;;5125655;27;20429;-73
2022/02/11 06:35:02;;;;;;;19.37;17.70;;;;;;;;;;5127951;27;20600;-72
2022/02/11 06:37:30;;;;;;;22.97;20.23;;;;;;;;;;5131997;27;20442;-72
2022/02/11 06:40:00;;;;;;;16.90;14.93;;;;;;;;;;5122151;27;20443;-72
2022/02/11 06:42:29;;;;;;;25.43;23.33;;;;;;;;;;5126215;27;20438;-72
2022/02/11 06:45:02;;;;;;;23.47;21.60;;;;;;;;;;5125921;27;20442;-72
2022/02/11 06:47:30;;;;;;;25.90;24.03;;;;;;;;;;5125658;27;20430;-72
2022/02/11 06:49:59;;;;;;;22.50;20.80;;;;;;;;;;5125013;27;20555;-72
2022/02/11 06:52:30;;;;;;;16.13;14.57;;;;;;;;;;5126950;27;20446;-73
2022/02/11 06:54:58;;;;;;;16.57;13.80;;;;;;;;;;5135506;27;20438;-73
2022/02/11 06:57:33;;;;;;;20.13;17.13;;;;;;;;;;5126521;27;20908;-73
2022/02/11 07:00:05;;;;;;;21.50;16.73;;;;;;;;;;5125898;27;20468;-73
2022/02/11 07:02:34;;;;;;;17.73;16.00;;;;;;;;;;5127878;27;20474;-73
2022/02/11 07:05:04;;;;;;;15.83;14.30;;;;;;;;;;5124708;27;20451;-72
2022/02/11 07:07:35;;;;;;;17.47;15.80;;;;;;;;;;5119026;27;21103;-73
2022/02/11 07:10:11;;;;;;;20.23;17.27;;;;;;;;;;5134345;27;20489;-73
2022/02/11 07:12:50;;;;;;;24.73;22.13;;;;;;;;;;5137810;27;20445;-73
2022/02/11 07:15:19;;;;;;;16.07;14.73;;;;;;;;;;5121373;27;20905;-73
2022/02/11 07:17:47;;;;;;;15.40;13.70;;;;;;;;;;5119977;27;20746;-72
2022/02/11 07:20:17;;;;;;;25.93;23.37;;;;;;;;;;5137439;27;20442;-73
2022/02/11 07:22:48;;;;;;;14.57;13.47;;;;;;;;;;5128930;27;20925;-73
2022/02/11 07:25:18;;;;;;;13.10;11.40;;;;;;;;;;5134998;27;20533;-73
2022/02/11 07:27:48;;;;;;;39.47;35.50;;;;;;;;;;5136287;27;20541;-73
2022/02/11 07:30:21;;;;;;;31.80;28.70;;;;;;;;;;5128522;27;20736;-73
2022/02/11 07:32:51;;;;;;;14.23;12.00;;;;;;;;;;5127888;27;20549;-72
2022/02/11 07:35:22;;;;;;;47.47;42.70;;;;;;;;;;5125297;27;20442;-72
2022/02/11 07:37:54;;;;;;;35.63;32.27;;;;;;;;;;5134531;27;20454;-73
2022/02/11 07:40:22;;;;;;;23.83;21.90;;;;;;;;;;5137523;27;20437;-73
2022/02/11 07:42:52;;;;;;;33.27;30.50;;;;;;;;;;5137613;27;20476;-73
2022/02/11 07:45:24;;;;;;;46.47;42.23;;;;;;;;;;5137136;27;20453;-73
2022/02/11 07:47:52;;;;;;;33.30;30.47;;;;;;;;;;5115727;28;20577;-73
2022/02/11 07:50:20;;;;;;;39.43;35.97;;;;;;;;;;5120205;27;20481;-72
2022/02/11 07:52:47;;;;;;;32.57;29.87;;;;;;;;;;5136446;27;20934;-73
2022/02/11 07:55:20;;;;;;;32.40;29.33;;;;;;;;;;5137646;27;20449;-73
2022/02/11 07:57:48;;;;;;;32.80;29.90;;;;;;;;;;5137965;27;20453;-73
2022/02/11 08:00:37;;;;;;;40.87;37.43;;;;;;;;;;5137057;27;20745;-73
2022/02/11 08:03:10;;;;;;;42.23;37.83;;;;;;;;;;5115520;27;21086;-73
2022/02/11 08:05:40;;;;;;;23.40;21.07;;;;;;;;;;5136817;27;20455;-73
2022/02/11 08:08:09;;;;;;;44.80;40.30;;;;;;;;;;5120405;27;20446;-75
2022/02/11 08:10:39;;;;;;;33.20;30.27;;;;;;;;;;5134993;27;20488;-73
2022/02/11 08:13:07;;;;;;;44.87;40.23;;;;;;;;;;5137565;27;20456;-74
2022/02/11 08:15:34;;;;;;;50.80;42.00;;;;;;;;;;5137038;27;20469;-73
2022/02/11 08:18:05;;;;;;;44.87;40.67;;;;;;;;;;5136841;27;20453;-72
2022/02/11 08:20:35;;;;;;;43.60;39.20;;;;;;;;;;5136202;27;20495;-72
2022/02/11 08:23:08;;;;;;;42.30;38.60;;;;;;;;;;5133090;27;21002;-72
2022/02/11 08:25:36;;;;;;;44.10;39.77;;;;;;;;;;5136280;27;20981;-73
2022/02/11 08:28:10;;;;;;;45.70;41.27;;;;;;;;;;5135195;27;20502;-77
2022/02/11 08:30:38;;;;;;;39.87;35.63;;;;;;;;;;5114791;27;20557;-73
2022/02/11 08:33:06;;;;;;;45.10;40.50;;;;;;;;;;5120350;27;20446;-73
2022/02/11 08:35:34;;;;;;;41.73;37.63;;;;;;;;;;5136080;27;20446;-73
2022/02/11 08:38:03;;;;;;;38.90;35.50;;;;;;;;;;5136757;27;20927;-73
2022/02/11 08:40:36;;;;;;;44.00;40.10;;;;;;;;;;5136440;27;20442;-73
2022/02/11 08:43:10;;;;;;;40.60;36.83;;;;;;;;;;5136807;27;20441;-73
2022/02/11 08:45:40;;;;;;;43.77;39.40;;;;;;;;;;5136451;27;20540;-72
2022/02/11 08:48:09;;;;;;;54.00;48.30;;;;;;;;;;5135941;27;20537;-72
2022/02/11 08:50:40;;;;;;;55.40;49.70;;;;;;;;;;5135830;27;20548;-73
2022/02/11 08:53:10;;;;;;;50.40;45.07;;;;;;;;;;5134736;27;20446;-72
2022/02/11 08:55:44;;;;;;;55.83;49.83;;;;;;;;;;5135888;27;20503;-73
2022/02/11 08:58:19;;;;;;;55.60;49.70;;;;;;;;;;5136754;27;20502;-73
2022/02/11 09:00:47;;;;;;;58.23;52.07;;;;;;;;;;5135902;27;20433;-72
2022/02/11 09:03:15;;;;;;;57.50;48.43;;;;;;;;;;5135873;27;20446;-72
2022/02/11 09:05:54;;;;;;;50.60;45.20;;;;;;;;;;5135600;27;20503;-73
2022/02/11 09:08:26;;;;;;;52.97;47.27;;;;;;;;;;5134556;27;20462;-73
2022/02/11 09:10:58;;;;;;;48.37;43.43;;;;;;;;;;5135114;27;20854;-73
2022/02/11 09:13:27;;;;;;;78.27;54.27;;;;;;;;;;5136716;27;20772;-73
2022/02/11 09:15:58;;;;;;;76.10;53.87;;;;;;;;;;5136094;27;20576;-72
2022/02/11 09:18:39;;;;;;;70.60;52.83;;;;;;;;;;5136891;27;20459;-72
2022/02/11 09:21:10;;;;;;;74.37;54.60;;;;;;;;;;5131417;27;20531;-72
2022/02/11 09:23:42;;;;;;;48.77;43.80;;;;;;;;;;5128959;27;20445;-73
2022/02/11 09:26:11;;;;;;;51.30;45.77;;;;;;;;;;5135941;27;20481;-72
2022/02/11 09:28:42;;;;;;;58.80;50.00;;;;;;;;;;5136275;27;20514;-72
2022/02/11 09:31:11;;;;;;;47.27;42.27;;;;;;;;;;5136031;27;20928;-73
2022/02/11 09:33:39;;;;;;;53.97;48.57;;;;;;;;;;5129761;27;21076;-73
2022/02/11 09:36:11;;;;;;;50.87;45.77;;;;;;;;;;5117799;27;20739;-73
2022/02/11 09:38:55;;;;;;;57.00;50.87;;;;;;;;;;5130208;27;20900;-72
2022/02/11 09:41:27;;;;;;;57.83;51.70;;;;;;;;;;5123048;27;20751;-72
2022/02/11 09:44:00;;;;;;;56.60;50.67;;;;;;;;;;5120891;27;20534;-73
2022/02/11 09:46:33;;;;;;;63.93;55.60;;;;;;;;;;5129545;27;20430;-72
2022/02/11 09:49:04;;;;;;;61.27;54.10;;;;;;;;;;5117650;27;20476;-72
2022/02/11 09:51:53;;;;;;;;;;;;;;;;;;;;;
2022/02/11 09:54:22;;;;;;;55.80;49.80;;;;;;;;;;5122350;27;20488;-73
2022/02/11 09:56:52;;;;;;;56.60;50.60;;;;;;;;;;5124084;27;20508;-73
2022/02/11 09:59:28;;;;;;;48.40;44.10;;;;;;;;;;5122333;27;20450;-75
2022/02/11 10:01:58;;;;;;;49.37;44.23;;;;;;;;;;5126871;27;20826;-73
2022/02/11 10:04:27;;;;;;;62.63;54.93;;;;;;;;;;5122012;27;20471;-71
2022/02/11 10:06:58;;;;;;;62.13;54.83;;;;;;;;;;5129082;27;20442;-71
2022/02/11 10:09:28;;;;;;;50.07;45.50;;;;;;;;;;5128757;27;20474;-71
2022/02/11 10:11:56;;;;;;;44.90;40.70;;;;;;;;;;5125208;27;20511;-71
2022/02/11 10:14:27;;;;;;;45.70;41.50;;;;;;;;;;5124110;27;20442;-71
2022/02/11 10:17:06;;;;;;;68.97;63.13;;;;;;;;;;5127414;27;20511;-71
2022/02/11 10:19:45;;;;;;;54.63;49.43;;;;;;;;;;5122329;27;20594;-70
2022/02/11 10:22:14;;;;;;;62.97;56.33;;;;;;;;;;5118623;27;20508;-72
2022/02/11 10:24:47;;;;;;;56.27;50.47;;;;;;;;;;5121520;27;20526;-68
2022/02/11 10:27:20;;;;;;;57.60;47.60;;;;;;;;;;5130761;27;20446;-71
2022/02/11 10:29:50;;;;;;;55.30;49.47;;;;;;;;;;5130519;27;20439;-71
2022/02/11 10:32:17;;;;;;;58.47;52.23;;;;;;;;;;5131216;27;20478;-72
2022/02/11 10:34:52;;;;;;;75.33;55.87;;;;;;;;;;5134749;27;20546;-71
2022/02/11 10:37:20;;;;;;;69.43;58.73;;;;;;;;;;5127914;27;20912;-71
2022/02/11 10:40:03;;;;;;;79.30;59.80;;;;;;;;;;5129712;27;20438;-71
2022/02/11 10:42:54;;;;;;;75.80;55.07;;;;;;;;;;5134640;27;20453;-71
2022/02/11 10:45:41;;;;;;;66.10;54.83;;;;;;;;;;5131306;27;20715;-71
2022/02/11 10:48:12;;;;;;;57.60;51.87;;;;;;;;;;5125601;27;20454;-71
2022/02/11 10:50:57;;;;;;;62.47;55.73;;;;;;;;;;5122243;27;20451;-71
2022/02/11 10:53:31;;;;;;;55.13;49.53;;;;;;;;;;5126243;27;20438;-71
2022/02/11 10:56:01;;;;;;;56.53;50.63;;;;;;;;;;5123401;27;20529;-70
2022/02/11 10:58:29;;;;;;;55.57;49.77;;;;;;;;;;5130929;27;20510;-70
2022/02/11 11:01:00;;;;;;;47.63;43.43;;;;;;;;;;5134352;27;20448;-70
2022/02/11 11:03:33;;;;;;;21.03;19.33;;;;;;;;;;5133259;27;20545;-70
2022/02/11 11:06:04;;;;;;;48.40;44.30;;;;;;;;;;5132091;27;20462;-71
2022/02/11 11:08:37;;;;;;;34.77;32.03;;;;;;;;;;5132979;27;20470;-71
2022/02/11 11:11:09;;;;;;;22.93;21.43;;;;;;;;;;5134209;27;20449;-70
2022/02/11 11:13:45;;;;;;;28.87;26.80;;;;;;;;;;5133239;27;20730;-71
2022/02/11 11:16:22;;;;;;;27.57;25.33;;;;;;;;;;5122578;27;20529;-71
2022/02/11 11:19:00;;;;;;;21.80;20.23;;;;;;;;;;5136785;27;20464;-71
2022/02/11 11:21:29;;;;;;;23.17;21.43;;;;;;;;;;5135374;27;20481;-71
2022/02/11 11:24:00;;;;;;;24.20;22.53;;;;;;;;;;5137864;27;20441;-72
2022/02/11 11:26:38;;;;;;;60.80;55.53;;;;;;;;;;5131663;27;20441;-71
2022/02/11 11:29:09;;;;;;;21.20;19.17;;;;;;;;;;5137852;27;20442;-71
2022/02/11 11:31:38;;;;;;;35.73;33.00;;;;;;;;;;5137001;27;20932;-71
2022/02/11 11:34:40;;;;;;;25.90;24.10;;;;;;;;;;5136542;27;20473;-71
2022/02/11 11:40:18;;;;;;;35.57;32.70;;;;;;;;;;5054535;28;20436;-71
2022/02/11 11:42:49;;;;;;;58.97;53.27;;;;;;;;;;5117393;27;20446;-72
2022/02/11 11:45:28;;;;;;;51.43;46.63;;;;;;;;;;5116678;28;20870;-71
2022/02/11 11:48:13;;;;;;;45.00;40.63;;;;;;;;;;5117074;28;20458;-72
2022/02/11 11:50:42;;;;;;;45.63;41.70;;;;;;;;;;5123596;27;20462;-72
2022/02/11 11:53:26;;;;;;;34.40;31.80;;;;;;;;;;5136341;27;20566;-71
2022/02/11 11:55:54;;;;;;;36.77;33.77;;;;;;;;;;5134380;27;20454;-71
2022/02/11 11:58:33;;;;;;;67.57;58.83;;;;;;;;;;5135839;27;20957;-71
2022/02/11 12:01:02;;;;;;;60.23;52.17;;;;;;;;;;5136026;27;20904;-71
2022/02/11 12:03:35;;;;;;;42.00;38.40;;;;;;;;;;5135270;27;20437;-71
2022/02/11 12:06:19;;;;;;;42.20;38.60;;;;;;;;;;5136352;27;20556;-71
2022/02/11 12:08:48;;;;;;;70.37;56.13;;;;;;;;;;5136094;27;20499;-71
2022/02/11 12:11:16;;;;;;;73.73;60.90;;;;;;;;;;5136279;27;20464;-71
2022/02/11 12:13:48;;;;;;;64.20;58.93;;;;;;;;;;5135419;27;20450;-71
2022/02/11 12:16:17;;;;;;;67.40;54.57;;;;;;;;;;5136180;27;20487;-71
2022/02/11 12:18:47;;;;;;;55.03;49.67;;;;;;;;;;5135984;27;20495;-71
2022/02/11 12:21:16;;;;;;;51.10;45.70;;;;;;;;;;5135530;27;20460;-71
2022/02/11 12:29:23;;;;;;;59.13;50.57;;;;;;;;;;5115312;28;20467;-71
2022/02/11 12:31:55;;;;;;;51.97;46.93;;;;;;;;;;5132063;27;20482;-72
2022/02/11 12:34:26;;;;;;;58.00;51.60;;;;;;;;;;5135463;27;20453;-71
2022/02/11 12:36:54;;;;;;;43.93;40.30;;;;;;;;;;5134755;27;20458;-71
2022/02/11 12:39:22;;;;;;;60.23;48.73;;;;;;;;;;5134833;27;20446;-71
2022/02/11 12:41:51;;;;;;;55.37;49.97;;;;;;;;;;5135340;27;20857;-71
2022/02/11 12:44:26;;;;;;;70.90;57.13;;;;;;;;;;5135031;27;20497;-71
2022/02/11 12:46:54;;;;;;;86.40;58.00;;;;;;;;;;5136082;27;20518;-71
2022/02/11 12:49:22;;;;;;;22.97;21.43;;;;;;;;;;5135337;27;20450;-71
2022/02/11 12:51:53;;;;;;;44.97;41.20;;;;;;;;;;5116697;27;21094;-71
2022/02/11 12:54:23;;;;;;;43.00;39.00;;;;;;;;;;5128821;27;20442;-72
2022/02/11 12:57:05;;;;;;;34.80;31.90;;;;;;;;;;5125985;27;20894;-71
2022/02/11 12:59:35;;;;;;;28.73;26.53;;;;;;;;;;5129922;27;20492;-71
2022/02/11 13:02:03;;;;;;;49.33;46.10;;;;;;;;;;5124280;27;20864;-71
2022/02/11 13:04:31;;;;;;;40.83;37.67;;;;;;;;;;5122446;27;20853;-71
2022/02/11 13:07:15;;;;;;;19.73;18.00;;;;;;;;;;5131859;27;20469;-72
2022/02/11 13:09:45;;;;;;;34.57;31.97;;;;;;;;;;5124871;27;20469;-71
2022/02/11 13:12:20;;;;;;;36.87;33.57;;;;;;;;;;5134411;27;20975;-71
2022/02/11 13:14:48;;;;;;;23.00;21.33;;;;;;;;;;5134839;27;20587;-71
2022/02/11 13:17:16;;;;;;;72.57;56.97;;;;;;;;;;5134955;27;20465;-72
2022/02/11 13:19:44;;;;;;;71.03;55.60;;;;;;;;;;5132347;27;20454;-72
2022/02/11 13:22:12;;;;;;;82.67;59.27;;;;;;;;;;5135032;27;20458;-72
2022/02/11 13:24:40;;;;;;;57.80;49.07;;;;;;;;;;5135337;27;20482;-72
2022/02/11 13:27:09;;;;;;;95.03;60.20;;;;;;;;;;5134589;27;20477;-72
2022/02/11 13:29:38;;;;;;;87.87;61.27;;;;;;;;;;5134758;27;20533;-72
2022/02/11 13:32:06;;;;;;;50.50;45.50;;;;;;;;;;5135834;27;20493;-72
2022/02/11 13:34:34;;;;;;;48.03;39.93;;;;;;;;;;5135885;27;20454;-72
2022/02/11 13:37:05;;;;;;;48.60;41.37;;;;;;;;;;5134791;27;20453;-71
2022/02/11 13:39:34;;;;;;;45.43;40.53;;;;;;;;;;5134397;27;20472;-72
2022/02/11 13:42:14;;;;;;;42.90;38.90;;;;;;;;;;5135021;27;20529;-71
2022/02/11 13:44:41;;;;;;;44.80;40.70;;;;;;;;;;5114644;28;20855;-72
2022/02/11 13:47:16;;;;;;;36.47;33.23;;;;;;;;;;5130268;27;20536;-72
2022/02/11 13:49:51;;;;;;;29.57;27.47;;;;;;;;;;5135390;27;20457;-72
2022/02/11 13:55:09;;;;;;;40.03;36.73;;;;;;;;;;5102399;27;20426;-72
2022/02/11 13:57:39;;;;;;;34.03;31.43;;;;;;;;;;5132710;27;20450;-71
2022/02/11 14:00:31;;;;;;;40.17;36.67;;;;;;;;;;5134622;27;20450;-72
2022/02/11 14:02:58;;;;;;;39.57;35.70;;;;;;;;;;5124172;27;20514;-71
2022/02/11 14:05:29;;;;;;;41.57;37.47;;;;;;;;;;5119640;27;20450;-71
2022/02/11 14:07:57;;;;;;;46.73;39.47;;;;;;;;;;5122757;27;20464;-71
2022/02/11 14:10:28;;;;;;;46.07;41.87;;;;;;;;;;5129532;27;20469;-72
2022/02/11 14:13:08;;;;;;;43.60;39.40;;;;;;;;;;5133680;27;20581;-71
2022/02/11 14:15:36;;;;;;;46.37;41.93;;;;;;;;;;5133830;27;20442;-71
2022/02/11 14:18:04;;;;;;;53.33;47.70;;;;;;;;;;5114048;28;20453;-71
2022/02/11 14:20:31;;;;;;;46.40;41.37;;;;;;;;;;5122485;27;20478;-70
2022/02/11 14:23:12;;;;;;;51.53;43.37;;;;;;;;;;5124997;27;20529;-71
2022/02/11 14:25:47;;;;;;;64.60;52.60;;;;;;;;;;5126845;27;20441;-72
2022/02/11 14:28:18;;;;;;;107.23;56.40;;;;;;;;;;5121562;27;20897;-71
2022/02/11 14:30:50;;;;;;;64.97;47.47;;;;;;;;;;5122343;27;20446;-71
2022/02/11 14:33:18;;;;;;;64.43;52.07;;;;;;;;;;5134397;27;20478;-71
2022/02/11 14:35:46;;;;;;;56.13;44.23;;;;;;;;;;5134091;27;20438;-71
2022/02/11 14:38:22;;;;;;;101.03;58.53;;;;;;;;;;5133217;27;20911;-71
2022/02/11 14:43:36;;;;;;;107.77;57.77;;;;;;;;;;5134311;27;20839;-70
2022/02/11 14:46:04;;;;;;;63.70;48.07;;;;;;;;;;5134423;28;21001;-70
2022/02/11 14:48:33;;;;;;;92.10;56.80;;;;;;;;;;5133362;28;20834;-70
2022/02/11 14:51:06;;;;;;;88.80;53.87;;;;;;;;;;5132749;27;20450;-71
2022/02/11 14:53:36;;;;;;;43.77;38.70;;;;;;;;;;5136431;27;20756;-70
2022/02/11 14:56:09;;;;;;;84.60;56.97;;;;;;;;;;5137676;27;20450;-71
2022/02/11 14:58:38;;;;;;;39.60;35.67;;;;;;;;;;5131085;27;20442;-71
2022/02/11 15:01:06;;;;;;;41.83;37.87;;;;;;;;;;5127567;27;20886;-71
2022/02/11 15:03:38;;;;;;;53.23;44.20;;;;;;;;;;5133154;27;20441;-72
2022/02/11 15:06:05;;;;;;;62.23;47.53;;;;;;;;;;5138866;27;20464;-71
2022/02/11 15:08:33;;;;;;;54.43;43.43;;;;;;;;;;5139962;27;20446;-71
2022/02/11 15:11:04;;;;;;;96.83;56.13;;;;;;;;;;5139710;27;20892;-71
2022/02/11 15:13:32;;;;;;;67.03;58.30;;;;;;;;;;5133874;27;20481;-71
2022/02/11 15:16:01;;;;;;;50.80;44.70;;;;;;;;;;5118872;28;20462;-71
2022/02/11 15:18:30;;;;;;;64.13;49.53;;;;;;;;;;5122464;27;20462;-71
2022/02/11 15:21:04;;;;;;;54.30;44.67;;;;;;;;;;5138696;27;20565;-72
2022/02/11 15:23:37;;;;;;;52.03;45.30;;;;;;;;;;5138205;27;20441;-71
2022/02/11 15:26:11;;;;;;;59.33;49.43;;;;;;;;;;5127791;27;20879;-72
2022/02/11 15:28:43;;;;;;;59.90;47.50;;;;;;;;;;5134494;27;20529;-72
2022/02/11 15:31:36;;;;;;;54.93;49.10;;;;;;;;;;5135321;27;20453;-71
2022/02/11 15:34:11;;;;;;;52.67;44.40;;;;;;;;;;5125747;27;20481;-72
2022/02/11 15:36:39;;;;;;;45.07;39.10;;;;;;;;;;5129391;27;20472;-71
2022/02/11 15:39:09;;;;;;;48.03;42.83;;;;;;;;;;5126679;27;20481;-71
2022/02/11 15:41:39;;;;;;;59.17;50.73;;;;;;;;;;5135282;27;20519;-71
2022/02/11 15:44:13;;;;;;;58.63;48.47;;;;;;;;;;5124621;27;20447;-72
2022/02/11 15:46:51;;;;;;;74.10;51.97;;;;;;;;;;5116993;28;20439;-71
2022/02/11 15:49:23;;;;;;;51.53;45.13;;;;;;;;;;5132026;27;20489;-71
2022/02/11 15:51:51;;;;;;;60.93;48.93;;;;;;;;;;5128310;27;20462;-71
2022/02/11 15:54:27;;;;;;;64.97;48.97;;;;;;;;;;5137395;27;20478;-72
2022/02/11 15:56:55;;;;;;;60.90;47.53;;;;;;;;;;5138683;27;20448;-72
2022/02/11 15:59:23;;;;;;;71.87;51.77;;;;;;;;;;5136644;27;20454;-71
2022/02/11 16:01:51;;;;;;;52.50;43.90;;;;;;;;;;5137210;27;20481;-72
2022/02/11 16:04:20;;;;;;;46.17;41.10;;;;;;;;;;5137602;27;20542;-72
2022/02/11 16:07:00;;;;;;;60.60;45.90;;;;;;;;;;5128357;27;20528;-73
2022/02/11 16:09:31;;;;;;;59.47;42.73;;;;;;;;;;5130878;27;20861;-73
2022/02/11 16:12:05;;;;;;;45.07;40.20;;;;;;;;;;5132996;27;20445;-73
2022/02/11 16:14:44;;;;;;;52.60;45.53;;;;;;;;;;5135061;27;20477;-73
2022/02/11 16:17:14;;;;;;;61.00;47.73;;;;;;;;;;5135237;27;20453;-72
2022/02/11 16:19:45;;;;;;;50.27;45.00;;;;;;;;;;5136580;27;20469;-73
2022/02/11 16:22:14;;;;;;;46.33;41.33;;;;;;;;;;5135219;27;20442;-72
2022/02/11 16:24:46;;;;;;;51.40;45.40;;;;;;;;;;5134679;27;20442;-72
2022/02/11 16:27:24;;;;;;;59.70;46.40;;;;;;;;;;5136865;27;20450;-72
2022/02/11 16:29:51;;;;;;;58.37;46.27;;;;;;;;;;5136539;27;20454;-72
2022/02/11 16:32:32;;;;;;;66.80;51.20;;;;;;;;;;5135644;27;20450;-72
2022/02/11 16:35:02;;;;;;;63.93;47.20;;;;;;;;;;5134862;27;20517;-72
2022/02/11 16:37:31;;;;;;;69.97;47.60;;;;;;;;;;5136703;27;20458;-72
2022/02/11 16:40:02;;;;;;;78.70;55.60;;;;;;;;;;5126768;27;20450;-71
2022/02/11 16:42:31;;;;;;;102.77;58.93;;;;;;;;;;5132437;27;20438;-72
2022/02/11 16:45:02;;;;;;;90.63;56.30;;;;;;;;;;5130056;27;20447;-72
2022/02/11 16:47:40;;;;;;;102.43;64.03;;;;;;;;;;5131135;27;20882;-72
2022/02/11 16:50:29;;;;;;;103.40;57.27;;;;;;;;;;5120156;27;20442;-73
2022/02/11 16:53:06;;;;;;;90.93;53.63;;;;;;;;;;5133569;27;20486;-72
2022/02/11 16:55:36;;;;;;;89.47;52.67;;;;;;;;;;5129258;27;20465;-71
2022/02/11 16:58:10;;;;;;;104.37;52.70;;;;;;;;;;5129263;27;20493;-72
2022/02/11 17:00:44;;;;;;;88.40;52.67;;;;;;;;;;5127049;27;20452;-72
2022/02/11 17:03:16;;;;;;;131.90;58.07;;;;;;;;;;5126656;27;20462;-72
2022/02/11 17:05:45;;;;;;;95.47;55.20;;;;;;;;;;5120067;27;20454;-72
2022/02/11 17:08:21;;;;;;;96.10;50.90;;;;;;;;;;5127801;27;20472;-72
2022/02/11 17:11:01;;;;;;;110.63;58.67;;;;;;;;;;5126575;27;20908;-71
2022/02/11 17:13:33;;;;;;;117.77;60.83;;;;;;;;;;5124774;27;20565;-72
2022/02/11 17:16:05;;;;;;;136.20;63.73;;;;;;;;;;5130536;27;20531;-71
2022/02/11 17:18:34;;;;;;;149.10;64.10;;;;;;;;;;5129068;27;20457;-72
2022/02/11 17:21:03;;;;;;;142.50;65.73;;;;;;;;;;5124532;27;20451;-71
2022/02/11 17:23:37;;;;;;;124.70;59.13;;;;;;;;;;5134342;27;20438;-72
2022/02/11 17:26:06;;;;;;;138.83;62.93;;;;;;;;;;5128659;27;20449;-71
2022/02/11 17:28:34;;;;;;;107.23;58.23;;;;;;;;;;5121177;27;20473;-72
2022/02/11 17:31:02;;;;;;;131.30;56.60;;;;;;;;;;5129365;27;20518;-72
2022/02/11 17:33:30;;;;;;;112.27;55.53;;;;;;;;;;5130890;27;20477;-71
2022/02/11 17:36:01;;;;;;;115.40;56.97;;;;;;;;;;5129219;27;20508;-72
2022/02/11 17:38:32;;;;;;;137.50;59.27;;;;;;;;;;5128493;27;20544;-72
2022/02/11 17:44:00;;;;;;;140.53;57.77;;;;;;;;;;5119803;27;20436;-71
2022/02/11 17:46:30;;;;;;;129.13;59.80;;;;;;;;;;5132299;27;20758;-72
2022/02/11 17:49:04;;;;;;;96.77;53.97;;;;;;;;;;5130111;27;20517;-72
2022/02/11 17:52:10;;;;;;;87.60;51.87;;;;;;;;;;5133326;27;20469;-71
2022/02/11 17:54:40;;;;;;;109.73;54.13;;;;;;;;;;5129763;27;20963;-73
2022/02/11 17:57:09;;;;;;;106.00;55.20;;;;;;;;;;5130353;27;20457;-72
2022/02/11 17:59:52;;;;;;;117.37;52.63;;;;;;;;;;5130529;27;20441;-72
2022/02/11 18:02:36;;;;;;;120.70;53.77;;;;;;;;;;5127853;27;20879;-72
2022/02/11 18:05:08;;;;;;;85.53;52.27;;;;;;;;;;5127115;27;20455;-74
2022/02/11 18:07:51;;;;;;;153.20;61.17;;;;;;;;;;5124818;27;20438;-71
2022/02/11 18:10:23;;;;;;;136.47;55.80;;;;;;;;;;5128545;27;20461;-73
2022/02/11 18:12:52;;;;;;;136.87;52.87;;;;;;;;;;5135685;27;20774;-73